Other Surface Observations
Issued by NWS Great Falls, MT

Home | Current Version | Previous Version | Text Only | Print | Product List | Glossary On
Versions: 1 2 3 4 5 6 7 8 9 10 11 12 13 14 15 16 17 18 19 20 21 22 23 24 25 26 27 28 29 30 31 32 33 34 35 36 37 38 39 40 41 42 43 44 45 46 47 48 49 50
088
SXUS55 KTFX 130444
OSOTFX
AREA AWOS OBSERVATIONS
NATIONAL WEATHER SERVICE GREAT FALLS MT
0944 PM MST TUE DEC 12 2017

METAR KPWD 130445Z AUTO 31027G33KT 10SM 05/M03 A2978 RMK PLENTYWOOD
METAR K1S3 130445Z AUTO 28013G22KT 10/M11 A3004 RMK FORSYTH
METAR KS71 130445Z AUTO 25008KT 10SM 03/M10 A3013 RMK CHINOOK
METAR K38S 130445Z AUTO 14003KT 10SM M03/M07 A3034 RMK DEER LODGE
METAR K3U3 130445Z AUTO 28003KT 10SM M03/M08 A3032 RMK ANACONDA
METAR K6S5 130445Z AUTO 34003KT 6SM M06/M08 A3037 RMK HAMILTON
METAR KS59 130445Z AUTO 00000KT 10SM M05/M07 A3045 RMK LIBBY
METAR K88M 130445Z AUTO 10SM M06/M08 A3047 RMK EUREKA



USA.gov is the U.S. government's official web portal to all federal, state and local government web resources and services.